Time;durP1;ratioP1;P1;durP2;ratioP2;P2;SDS_P1;SDS_P2;PMS_P1;PMS_P2;Temp;Humidity;BMP_temperature;BMP_pressure;BME280_temperature;BME280_humidity;BME280_pressure;Samples;Min_cycle;Max_cycle;Signal;HPM_P1;HPM_P2
2023/12/08 13:05:54;;;;;;;70.77;28.27;;;;;;;6.75;100.00;100656.13;5301036;27;20426;-71
2023/12/08 13:08:26;;;;;;;69.13;26.63;;;;;;;6.77;100.00;100653.44;5273620;28;20183;-72
2023/12/08 13:10:57;;;;;;;57.70;24.30;;;;;;;6.81;100.00;100659.34;5277481;28;20032;-73
2023/12/08 13:13:28;;;;;;;64.03;25.57;;;;;;;6.87;100.00;100664.25;5276649;28;20075;-73
2023/12/08 13:16:00;;;;;;;66.73;24.77;;;;;;;6.77;100.00;100656.06;5271883;28;20057;-73
2023/12/08 13:18:32;;;;;;;74.77;25.07;;;;;;;6.80;100.00;100662.84;5274650;28;20111;-72
2023/12/08 13:21:03;;;;;;;68.87;26.53;;;;;;;6.91;100.00;100660.63;5277427;28;20535;-73
2023/12/08 13:23:38;;;;;;;56.23;23.03;;;;;;;7.01;100.00;100672.28;5275861;28;20072;-73
2023/12/08 13:26:11;;;;;;;74.37;26.27;;;;;;;7.08;100.00;100672.81;5272415;28;20036;-71
2023/12/08 13:28:42;;;;;;;58.83;22.47;;;;;;;7.07;100.00;100665.91;5269741;28;20103;-73
2023/12/08 13:31:13;;;;;;;62.77;24.23;;;;;;;7.09;100.00;100676.25;5272037;28;20104;-72
2023/12/08 13:33:45;;;;;;;55.43;22.03;;;;;;;7.11;100.00;100677.88;5275156;28;20032;-71
2023/12/08 13:36:16;;;;;;;56.87;21.43;;;;;;;7.14;100.00;100692.50;5272096;28;20067;-73
2023/12/08 13:38:48;;;;;;;46.00;18.87;;;;;;;7.13;100.00;100693.44;5272598;28;20032;-76
2023/12/08 13:41:20;;;;;;;54.00;21.20;;;;;;;7.18;100.00;100701.88;5272430;28;20067;-72
2023/12/08 13:43:51;;;;;;;52.10;19.83;;;;;;;7.06;100.00;100702.44;5277601;28;20186;-75
2023/12/08 13:46:22;;;;;;;59.73;21.57;;;;;;;7.18;100.00;100711.44;5272547;28;20025;-74
2023/12/08 13:48:55;;;;;;;51.00;21.13;;;;;;;7.09;100.00;100708.34;5274857;28;20027;-74
2023/12/08 13:51:27;;;;;;;54.97;21.70;;;;;;;7.10;100.00;100706.59;5272700;28;20028;-74
2023/12/08 13:53:58;;;;;;;47.77;20.90;;;;;;;7.06;100.00;100705.91;5272822;28;20114;-76
2023/12/08 13:56:29;;;;;;;48.57;19.17;;;;;;;7.14;100.00;100705.53;5283409;28;20028;-71
2023/12/08 13:59:01;;;;;;;44.30;18.63;;;;;;;7.17;100.00;100708.00;5274930;28;20020;-72
2023/12/08 14:01:32;;;;;;;46.63;18.80;;;;;;;7.19;100.00;100713.97;5273951;28;20036;-71
2023/12/08 14:04:03;;;;;;;40.87;17.07;;;;;;;7.22;100.00;100713.84;5273608;28;20068;-73
2023/12/08 14:06:35;;;;;;;42.27;17.97;;;;;;;7.22;100.00;100716.44;5273300;28;20466;-72
2023/12/08 14:09:06;;;;;;;37.83;17.07;;;;;;;7.17;100.00;100713.22;5289350;28;20066;-73
2023/12/08 14:11:38;;;;;;;41.23;17.70;;;;;;;7.12;100.00;100704.78;5281531;28;20033;-73
2023/12/08 14:14:10;;;;;;;35.80;16.47;;;;;;;7.19;100.00;100713.13;5276522;28;20033;-72
2023/12/08 14:16:41;;;;;;;34.63;16.90;;;;;;;7.23;100.00;100723.31;5264826;28;20516;-73
2023/12/08 14:19:13;;;;;;;45.33;17.37;;;;;;;7.29;100.00;100723.94;5274606;28;20059;-70
2023/12/08 14:21:45;;;;;;;39.13;17.00;;;;;;;7.27;100.00;100713.59;5266559;28;20028;-71
2023/12/08 14:24:16;;;;;;;33.00;16.57;;;;;;;7.30;100.00;100717.81;5258532;28;20048;-72
2023/12/08 14:26:47;;;;;;;38.87;16.97;;;;;;;7.29;100.00;100711.78;5263029;28;20025;-70
2023/12/08 14:29:19;;;;;;;32.10;15.37;;;;;;;7.15;100.00;100699.41;5256199;28;20032;-70
2023/12/08 14:31:50;;;;;;;47.23;17.93;;;;;;;7.33;100.00;100722.91;5256977;28;20100;-70
2023/12/08 14:34:21;;;;;;;45.57;17.60;;;;;;;7.29;100.00;100727.41;5262579;28;20053;-72
2023/12/08 14:36:53;;;;;;;34.73;16.10;;;;;;;7.32;100.00;100727.25;5264598;28;20130;-74
2023/12/08 14:39:24;;;;;;;31.00;15.47;;;;;;;7.23;100.00;100725.94;5257625;28;20032;-77
2023/12/08 14:41:55;;;;;;;37.27;16.40;;;;;;;7.36;100.00;100743.59;5267004;28;20041;-75
2023/12/08 14:44:28;;;;;;;36.33;16.70;;;;;;;7.33;100.00;100748.94;5290639;28;20190;-74
2023/12/08 14:47:00;;;;;;;38.57;15.80;;;;;;;7.38;100.00;100746.97;5266308;28;20024;-75
2023/12/08 14:49:31;;;;;;;41.77;16.57;;;;;;;7.31;100.00;100742.97;5259604;28;20044;-73
2023/12/08 14:52:03;;;;;;;32.60;15.40;;;;;;;7.29;100.00;100747.41;5271412;28;20376;-72
2023/12/08 14:54:35;;;;;;;34.60;16.17;;;;;;;7.32;100.00;100742.03;5265624;28;20060;-71
2023/12/08 14:57:06;;;;;;;39.53;16.73;;;;;;;7.29;100.00;100750.00;5262406;28;20382;-71
2023/12/08 14:59:38;;;;;;;31.27;15.10;;;;;;;7.30;100.00;100749.06;5260982;28;20087;-66
2023/12/08 15:02:09;;;;;;;29.07;15.87;;;;;;;7.26;100.00;100751.81;5291534;28;20056;-69
2023/12/08 15:04:42;;;;;;;35.43;16.20;;;;;;;7.33;100.00;100759.38;5260043;28;20080;-70
2023/12/08 15:07:13;;;;;;;37.27;16.30;;;;;;;7.37;100.00;100764.34;5259823;28;20120;-68
2023/12/08 15:09:44;;;;;;;33.20;16.17;;;;;;;7.26;100.00;100754.44;5266381;28;20107;-71
2023/12/08 15:12:16;;;;;;;38.10;17.53;;;;;;;7.30;100.00;100759.50;5260934;28;20033;-71
2023/12/08 15:14:48;;;;;;;32.87;16.87;;;;;;;7.22;100.00;100758.13;5257811;28;20036;-69
2023/12/08 15:17:19;;;;;;;37.83;17.40;;;;;;;7.23;100.00;100753.72;5258152;28;20033;-71
2023/12/08 15:19:51;;;;;;;33.73;15.93;;;;;;;7.43;100.00;100771.03;5256140;28;20032;-72
2023/12/08 15:22:23;;;;;;;34.23;16.43;;;;;;;7.40;100.00;100771.16;5267131;28;20024;-70
2023/12/08 15:24:54;;;;;;;32.03;15.63;;;;;;;7.33;100.00;100769.78;5261963;28;20024;-72
2023/12/08 15:27:26;;;;;;;34.07;16.53;;;;;;;7.36;100.00;100774.84;5256229;28;20781;-71
2023/12/08 15:29:57;;;;;;;34.30;16.37;;;;;;;7.35;100.00;100780.97;5253562;28;20029;-69
2023/12/08 15:32:28;;;;;;;33.00;17.07;;;;;;;7.37;100.00;100776.53;5257779;28;20073;-69
2023/12/08 15:35:00;;;;;;;37.80;16.37;;;;;;;7.40;100.00;100783.38;5262938;28;20036;-69
2023/12/08 15:37:31;;;;;;;36.43;16.47;;;;;;;7.37;100.00;100779.13;5256893;28;20490;-69
2023/12/08 15:40:03;;;;;;;28.37;16.97;;;;;;;7.40;100.00;100776.38;5257301;28;20068;-69
2023/12/08 15:42:34;;;;;;;33.53;16.30;;;;;;;7.43;100.00;100796.25;5265396;28;20044;-69
2023/12/08 15:45:05;;;;;;;32.00;15.37;;;;;;;7.42;100.00;100798.00;5256716;28;20033;-69
2023/12/08 15:47:38;;;;;;;32.73;15.20;;;;;;;7.36;100.00;100785.28;5259615;28;20029;-71
2023/12/08 15:50:09;;;;;;;34.40;15.90;;;;;;;7.40;100.00;100802.44;5258502;28;20060;-72
2023/12/08 15:52:40;;;;;;;29.27;15.93;;;;;;;7.39;100.00;100798.16;5256061;28;20080;-72
2023/12/08 15:55:11;;;;;;;32.23;16.67;;;;;;;7.40;100.00;100812.84;5257326;28;20079;-72
2023/12/08 15:57:43;;;;;;;33.30;16.03;;;;;;;7.46;100.00;100823.00;5262385;28;20020;-73
2023/12/08 16:00:15;;;;;;;34.00;16.53;;;;;;;7.44;100.00;100822.22;5255551;28;20029;-71
2023/12/08 16:02:46;;;;;;;30.13;14.77;;;;;;;7.40;100.00;100815.47;5258391;28;20032;-71
2023/12/08 16:05:17;;;;;;;30.97;14.27;;;;;;;7.34;100.00;100810.53;5259455;28;20083;-71
2023/12/08 16:07:49;;;;;;;26.57;14.13;;;;;;;7.44;100.00;100811.81;5257736;28;20028;-71
2023/12/08 16:10:20;;;;;;;32.90;15.10;;;;;;;7.39;100.00;100816.38;5258298;28;20505;-71
2023/12/08 16:12:52;;;;;;;31.03;15.17;;;;;;;7.37;100.00;100823.44;5262444;28;20025;-71
2023/12/08 16:15:23;;;;;;;26.70;14.13;;;;;;;7.40;100.00;100823.28;5258114;28;20044;-70
2023/12/08 16:17:54;;;;;;;34.80;15.53;;;;;;;7.45;100.00;100820.47;5255648;28;20115;-70
2023/12/08 16:20:25;;;;;;;28.17;14.07;;;;;;;7.51;100.00;100825.38;5235860;28;20025;-70
2023/12/08 16:22:57;;;;;;;27.23;13.10;;;;;;;7.39;100.00;100826.81;5234613;28;20025;-68
2023/12/08 16:25:28;;;;;;;30.83;14.57;;;;;;;7.45;100.00;100804.84;5242888;28;20069;-70
2023/12/08 16:27:59;;;;;;;29.67;14.63;;;;;;;7.61;100.00;100831.03;5242289;28;20094;-68
2023/12/08 16:30:30;;;;;;;23.70;13.40;;;;;;;7.56;100.00;100815.59;5243156;28;20031;-68
2023/12/08 16:33:02;;;;;;;31.80;14.73;;;;;;;7.57;100.00;100826.88;5240552;28;20102;-68
2023/12/08 16:35:33;;;;;;;25.93;12.80;;;;;;;7.65;100.00;100832.56;5242053;28;20047;-71
2023/12/08 16:38:04;;;;;;;26.60;13.50;;;;;;;7.60;100.00;100824.09;5240380;28;20124;-69
2023/12/08 16:40:40;;;;;;;27.97;14.47;;;;;;;7.68;100.00;100829.78;5235604;28;20154;-70
2023/12/08 16:43:11;;;;;;;29.03;14.23;;;;;;;7.41;100.00;100809.34;5240963;28;20096;-69
2023/12/08 16:45:43;;;;;;;28.73;14.13;;;;;;;7.55;100.00;100828.69;5237980;28;20033;-70
2023/12/08 16:48:14;;;;;;;30.40;15.03;;;;;;;7.47;100.00;100826.47;5242927;28;20079;-70
2023/12/08 16:50:45;;;;;;;25.03;12.47;;;;;;;7.58;100.00;100837.22;5239640;28;20480;-69
2023/12/08 16:53:19;;;;;;;27.60;13.30;;;;;;;7.47;100.00;100834.28;5241152;28;20071;-68
2023/12/08 16:55:53;;;;;;;29.27;13.73;;;;;;;7.46;100.00;100843.84;5237731;28;20127;-72
2023/12/08 16:58:25;;;;;;;23.92;11.80;;;;;;;7.56;100.00;100846.00;5241434;28;20032;-70
2023/12/08 17:00:56;;;;;;;22.00;12.27;;;;;;;7.49;100.00;100846.31;5239421;28;20572;-71
2023/12/08 17:03:27;;;;;;;26.77;13.53;;;;;;;7.50;100.00;100845.38;5239127;28;20049;-70
2023/12/08 17:05:59;;;;;;;31.07;13.13;;;;;;;7.46;100.00;100838.66;5241443;28;20087;-69
2023/12/08 17:08:30;;;;;;;24.30;12.63;;;;;;;7.46;100.00;100843.84;5239582;28;20110;-73
2023/12/08 17:11:02;;;;;;;32.47;13.97;;;;;;;7.40;100.00;100833.69;5240839;28;20068;-71
2023/12/08 17:13:36;;;;;;;27.00;13.47;;;;;;;7.41;100.00;100842.38;5232335;28;20122;-71
2023/12/08 17:16:07;;;;;;;28.30;16.00;;;;;;;7.43;100.00;100846.59;5243169;28;20040;-71
2023/12/08 17:18:38;;;;;;;29.07;13.97;;;;;;;7.25;100.00;100846.53;5236752;28;20851;-71
2023/12/08 17:21:10;;;;;;;28.47;14.83;;;;;;;7.36;100.00;100838.25;5240911;28;20049;-71
2023/12/08 17:23:41;;;;;;;29.03;14.80;;;;;;;7.45;100.00;100846.53;5239926;28;20465;-71
2023/12/08 17:26:12;;;;;;;29.00;14.33;;;;;;;7.31;100.00;100834.16;5240227;28;20036;-73
2023/12/08 17:28:44;;;;;;;26.07;13.07;;;;;;;7.30;100.00;100843.72;5241517;28;20028;-71
2023/12/08 17:31:15;;;;;;;35.93;15.40;;;;;;;7.27;100.00;100849.06;5244523;28;20032;-69
2023/12/08 17:33:47;;;;;;;36.03;14.23;;;;;;;7.21;100.00;100844.97;5240735;28;20048;-71
2023/12/08 17:36:18;;;;;;;32.50;15.33;;;;;;;7.13;100.00;100834.94;5240529;28;20029;-71
2023/12/08 17:38:49;;;;;;;37.47;16.60;;;;;;;7.16;100.00;100843.53;5241049;28;20032;-74
2023/12/08 17:41:20;;;;;;;35.53;16.00;;;;;;;7.23;100.00;100843.16;5244000;28;20043;-70
2023/12/08 17:43:52;;;;;;;29.70;16.27;;;;;;;7.24;100.00;100837.00;5240753;28;20025;-73
2023/12/08 17:46:23;;;;;;;30.17;17.00;;;;;;;7.16;100.00;100836.53;5240933;28;20163;-71
2023/12/08 17:48:55;;;;;;;33.03;18.53;;;;;;;7.20;100.00;100837.25;5242045;28;20418;-67
2023/12/08 17:51:26;;;;;;;39.87;19.63;;;;;;;7.15;100.00;100845.28;5241986;28;20037;-72
2023/12/08 17:53:57;;;;;;;32.53;18.30;;;;;;;7.17;100.00;100847.81;5245960;28;20098;-74
2023/12/08 17:56:31;;;;;;;32.17;18.90;;;;;;;7.13;100.00;100850.56;5244908;28;20492;-69
2023/12/08 17:59:03;;;;;;;33.65;17.65;;;;;;;7.10;100.00;100853.28;5239733;28;20029;-70
2023/12/08 18:01:34;;;;;;;36.07;18.30;;;;;;;7.10;100.00;100850.66;5245618;28;20033;-70
2023/12/08 18:04:05;;;;;;;32.33;17.80;;;;;;;7.09;100.00;100850.75;5245770;28;20045;-71
2023/12/08 18:06:36;;;;;;;31.77;16.57;;;;;;;7.04;100.00;100843.16;5244961;28;20849;-72
2023/12/08 18:09:08;;;;;;;37.50;19.13;;;;;;;6.98;100.00;100841.66;5241878;28;20338;-73
2023/12/08 18:11:39;;;;;;;39.93;17.43;;;;;;;6.97;100.00;100847.78;5244533;28;20497;-72
2023/12/08 18:14:11;;;;;;;36.70;18.20;;;;;;;7.01;100.00;100859.75;5245662;28;20384;-73
2023/12/08 18:16:44;;;;;;;33.27;17.13;;;;;;;6.97;100.00;100860.81;5244456;28;20064;-71
2023/12/08 18:19:16;;;;;;;33.97;16.97;;;;;;;6.94;100.00;100867.91;5245846;28;20086;-73
2023/12/08 18:21:48;;;;;;;38.93;18.33;;;;;;;6.90;100.00;100856.78;5247226;28;20487;-69
2023/12/08 18:24:19;;;;;;;38.20;19.20;;;;;;;6.97;100.00;100862.56;5249261;28;20497;-72
2023/12/08 18:26:51;;;;;;;33.47;18.50;;;;;;;7.00;100.00;100862.41;5245272;28;20040;-72
2023/12/08 18:29:22;;;;;;;36.33;19.10;;;;;;;7.00;100.00;100852.84;5241513;28;20494;-73
2023/12/08 18:31:53;;;;;;;39.80;17.50;;;;;;;7.02;100.00;100863.19;5245772;28;20033;-70
2023/12/08 18:34:25;;;;;;;36.93;17.83;;;;;;;7.05;100.00;100875.25;5223346;28;20543;-70
2023/12/08 18:36:56;;;;;;;36.57;17.57;;;;;;;6.92;100.00;100872.31;5225035;28;20537;-72
2023/12/08 18:39:27;;;;;;;35.60;17.60;;;;;;;7.00;100.00;100871.06;5245172;28;20094;-73
2023/12/08 18:41:59;;;;;;;43.33;18.27;;;;;;;7.05;100.00;100872.66;5245101;28;20036;-75
2023/12/08 18:44:30;;;;;;;37.40;17.37;;;;;;;7.03;100.00;100877.91;5247396;28;20118;-74
2023/12/08 18:47:02;;;;;;;34.10;18.17;;;;;;;7.00;100.00;100878.03;5245670;28;20040;-74
2023/12/08 18:49:33;;;;;;;40.17;16.73;;;;;;;6.90;100.00;100883.66;5245105;28;20040;-72
2023/12/08 18:52:05;;;;;;;37.63;16.00;;;;;;;7.02;100.00;100886.63;5247109;28;20024;-72
2023/12/08 18:54:36;;;;;;;36.47;16.50;;;;;;;7.01;100.00;100879.75;5246089;28;21888;-71
2023/12/08 18:57:07;;;;;;;31.13;16.90;;;;;;;6.96;100.00;100873.91;5243158;28;20033;-72
2023/12/08 18:59:40;;;;;;;30.33;15.43;;;;;;;7.06;100.00;100876.94;5241954;28;20237;-72
2023/12/08 19:02:11;;;;;;;35.53;16.83;;;;;;;6.96;100.00;100871.28;5239782;28;21355;-73
2023/12/08 19:04:43;;;;;;;32.67;16.90;;;;;;;7.02;100.00;100882.28;5242120;28;20091;-73
2023/12/08 19:07:14;;;;;;;33.43;16.60;;;;;;;7.05;100.00;100880.47;5248985;28;20029;-73
2023/12/08 19:09:45;;;;;;;39.20;16.70;;;;;;;7.00;100.00;100870.22;5245918;28;20126;-73
2023/12/08 19:12:17;;;;;;;34.20;16.67;;;;;;;7.08;100.00;100881.16;5246204;28;20063;-72
2023/12/08 19:14:48;;;;;;;32.60;16.60;;;;;;;7.09;100.00;100879.38;5249725;28;20503;-71
2023/12/08 19:17:19;;;;;;;36.33;16.80;;;;;;;7.01;100.00;100877.13;5249103;28;20529;-72
2023/12/08 19:19:51;;;;;;;36.83;16.60;;;;;;;7.07;100.00;100881.25;5249878;28;20040;-71
2023/12/08 19:22:22;;;;;;;36.23;16.83;;;;;;;7.07;100.00;100883.84;5250235;28;20037;-71
2023/12/08 19:24:53;;;;;;;30.57;17.00;;;;;;;7.02;100.00;100887.47;5249594;28;20170;-71
2023/12/08 19:27:24;;;;;;;33.03;14.83;;;;;;;7.00;100.00;100889.31;5248826;28;20044;-71
2023/12/08 19:29:56;;;;;;;33.33;15.03;;;;;;;7.00;100.00;100894.50;5248854;28;20031;-70
2023/12/08 19:32:27;;;;;;;32.33;14.93;;;;;;;7.02;100.00;100897.91;5250204;28;20033;-72
2023/12/08 19:34:59;;;;;;;26.40;14.63;;;;;;;6.91;100.00;100887.13;5248906;28;20668;-71
2023/12/08 19:37:30;;;;;;;31.97;15.00;;;;;;;6.98;100.00;100887.69;5249504;28;20103;-70
2023/12/08 19:40:01;;;;;;;32.40;14.43;;;;;;;6.96;100.00;100886.91;5249916;28;20086;-72
2023/12/08 19:42:33;;;;;;;28.10;14.87;;;;;;;7.00;100.00;100894.50;5247509;28;20069;-70
2023/12/08 19:45:05;;;;;;;24.67;14.43;;;;;;;7.05;100.00;100890.88;5248160;28;20040;-72
2023/12/08 19:47:36;;;;;;;32.33;15.40;;;;;;;6.99;100.00;100895.44;5249162;28;20431;-71
2023/12/08 19:50:08;;;;;;;37.77;15.83;;;;;;;7.00;100.00;100878.88;5247665;28;20025;-72
2023/12/08 19:52:40;;;;;;;22.43;12.47;;;;;;;7.09;100.00;100897.63;5248760;28;20111;-72
2023/12/08 19:55:12;;;;;;;29.93;13.73;;;;;;;7.06;100.00;100895.16;5249751;28;20601;-72
2023/12/08 19:57:43;;;;;;;32.47;12.77;;;;;;;7.04;100.00;100889.16;5247630;28;20029;-71
2023/12/08 20:00:15;;;;;;;38.20;14.57;;;;;;;7.01;100.00;100901.44;5247860;28;20029;-71
2023/12/08 20:02:46;;;;;;;32.33;14.30;;;;;;;6.98;100.00;100890.31;5247357;28;20519;-70
2023/12/08 20:05:17;;;;;;;30.07;13.07;;;;;;;6.98;100.00;100895.50;5247328;28;20041;-71
2023/12/08 20:07:49;;;;;;;34.87;12.30;;;;;;;7.02;100.00;100887.47;5244783;28;20116;-72
2023/12/08 20:10:20;;;;;;;28.17;11.53;;;;;;;7.00;100.00;100889.31;5246988;28;20033;-71
2023/12/08 20:12:52;;;;;;;31.43;12.80;;;;;;;6.97;100.00;100889.44;5246176;28;20100;-69
2023/12/08 20:15:23;;;;;;;28.90;11.53;;;;;;;6.94;100.00;100894.78;5245498;28;20056;-71
2023/12/08 20:17:55;;;;;;;31.77;12.17;;;;;;;6.93;100.00;100893.09;5244752;28;20032;-70
2023/12/08 20:20:26;;;;;;;27.33;11.30;;;;;;;7.00;100.00;100904.94;5247406;28;20470;-73
2023/12/08 20:23:16;;;;;;;27.43;11.93;;;;;;;7.08;100.00;100904.59;5245647;28;20494;-73
2023/12/08 20:25:47;;;;;;;32.17;11.93;;;;;;;6.91;100.00;100894.94;5246788;28;20656;-72
2023/12/08 20:28:18;;;;;;;24.37;10.60;;;;;;;6.82;100.00;100900.53;5244024;28;20025;-71
2023/12/08 20:30:49;;;;;;;32.63;10.67;;;;;;;6.88;100.00;100887.22;5244983;28;20032;-71
2023/12/08 20:33:21;;;;;;;36.47;11.60;;;;;;;6.91;100.00;100897.53;5246170;28;20107;-72
2023/12/08 20:35:52;;;;;;;26.30;10.57;;;;;;;6.85;100.00;100884.78;5240933;28;20032;-72
2023/12/08 20:38:23;;;;;;;29.27;11.17;;;;;;;6.93;100.00;100900.06;5247527;28;20025;-72
2023/12/08 20:40:55;;;;;;;34.50;11.60;;;;;;;6.85;100.00;100897.78;5248759;28;20029;-72
2023/12/08 20:43:26;;;;;;;25.80;10.93;;;;;;;6.87;100.00;100909.00;5246745;28;20055;-72
2023/12/08 20:46:02;;;;;;;25.33;10.57;;;;;;;6.90;100.00;100904.50;5246316;28;20419;-74
2023/12/08 20:48:33;;;;;;;27.50;10.13;;;;;;;6.88;100.00;100902.84;5245769;28;20025;-71
2023/12/08 20:51:04;;;;;;;20.87;9.50;;;;;;;6.70;100.00;100901.91;5245038;28;20114;-73
2023/12/08 20:53:36;;;;;;;28.33;9.93;;;;;;;6.86;100.00;100897.72;5247249;28;20029;-74
2023/12/08 20:56:17;;;;;;;39.10;11.40;;;;;;;6.77;100.00;100919.78;5247626;28;20025;-74
2023/12/08 20:58:48;;;;;;;34.10;10.43;;;;;;;6.84;100.00;100914.34;5241617;28;20493;-72
2023/12/08 21:01:19;;;;;;;32.17;10.53;;;;;;;6.80;100.00;100915.38;5246112;28;20589;-71
2023/12/08 21:03:50;;;;;;;26.53;9.60;;;;;;;6.80;100.00;100918.81;5253588;28;20041;-73
2023/12/08 21:06:22;;;;;;;32.93;9.87;;;;;;;6.85;100.00;100905.59;5255364;28;20029;-73
2023/12/08 21:08:53;;;;;;;26.73;9.53;;;;;;;6.83;100.00;100913.47;5254876;28;20036;-75
2023/12/08 21:11:24;;;;;;;29.93;10.23;;;;;;;6.83;100.00;100923.03;5253436;28;20178;-72
2023/12/08 21:13:58;;;;;;;28.47;10.23;;;;;;;6.84;100.00;100917.75;5252978;28;20025;-73
2023/12/08 21:16:29;;;;;;;28.70;9.10;;;;;;;6.69;100.00;100905.41;5254974;28;20523;-74
2023/12/08 21:19:00;;;;;;;28.87;9.13;;;;;;;6.77;100.00;100914.56;5255093;28;20104;-77
2023/12/08 21:21:32;;;;;;;27.80;9.67;;;;;;;6.83;100.00;100923.03;5255895;28;20025;-76
2023/12/08 21:24:04;;;;;;;25.33;9.47;;;;;;;6.78;100.00;100916.28;5255022;28;20057;-73
2023/12/08 21:26:36;;;;;;;32.37;8.97;;;;;;;6.75;100.00;100911.22;5257548;28;20031;-76
2023/12/08 21:29:07;;;;;;;27.80;10.83;;;;;;;6.73;100.00;100913.03;5258211;28;20071;-76
2023/12/08 21:31:49;;;;;;;30.13;10.17;;;;;;;6.80;100.00;100918.81;5259703;28;20028;-74
2023/12/08 21:34:20;;;;;;;30.50;10.53;;;;;;;6.76;100.00;100902.50;5258691;28;20032;-73
2023/12/08 21:36:51;;;;;;;28.13;10.87;;;;;;;6.73;100.00;100909.56;5259286;28;20032;-74
2023/12/08 21:39:23;;;;;;;29.63;10.40;;;;;;;6.78;100.00;100908.47;5259177;28;20158;-72
2023/12/08 21:41:54;;;;;;;35.40;10.73;;;;;;;6.79;100.00;100919.72;5260055;28;20037;-76
2023/12/08 21:44:25;;;;;;;35.13;9.73;;;;;;;6.69;100.00;100908.00;5258428;28;20022;-76
2023/12/08 21:46:56;;;;;;;31.63;9.50;;;;;;;6.77;100.00;100905.94;5257338;28;20021;-74
2023/12/08 21:49:28;;;;;;;29.23;8.93;;;;;;;6.75;100.00;100919.03;5258310;28;20036;-75
2023/12/08 21:52:00;;;;;;;30.67;9.80;;;;;;;6.75;100.00;100924.22;5258048;28;20025;-75
2023/12/08 21:54:32;;;;;;;26.97;9.70;;;;;;;6.78;100.00;100926.69;5257459;28;20033;-73
